sensor_id;sensor_type;location;lat;lon;timestamp;pressure;altitude;pressure_sealevel;temperature;humidity
60371;BME280;48550;40.588;49.684;2023-05-20T00:01:59;101534.19;;;15.50;100.00
60371;BME280;48550;40.588;49.684;2023-05-20T00:04:24;101540.91;;;15.47;100.00
60371;BME280;48550;40.588;49.684;2023-05-20T00:06:50;101527.63;;;15.46;100.00
60371;BME280;48550;40.588;49.684;2023-05-20T00:09:16;101536.97;;;15.55;100.00
60371;BME280;48550;40.588;49.684;2023-05-20T00:11:42;101530.56;;;15.44;100.00
60371;BME280;48550;40.588;49.684;2023-05-20T00:14:07;101528.34;;;15.41;100.00
60371;BME280;48550;40.588;49.684;2023-05-20T00:16:33;101527.88;;;15.44;100.00
60371;BME280;48550;40.588;49.684;2023-05-20T00:18:59;101525.06;;;15.39;100.00
60371;BME280;48550;40.588;49.684;2023-05-20T00:21:25;101521.88;;;15.42;100.00
60371;BME280;48550;40.588;49.684;2023-05-20T00:23:51;101521.06;;;15.42;100.00
60371;BME280;48550;40.588;49.684;2023-05-20T00:26:16;101518.03;;;15.38;100.00
60371;BME280;48550;40.588;49.684;2023-05-20T00:28:42;101510.97;;;15.37;100.00
60371;BME280;48550;40.588;49.684;2023-05-20T00:31:08;101518.94;;;15.44;100.00
60371;BME280;48550;40.588;49.684;2023-05-20T00:33:34;101512.63;;;15.38;100.00
60371;BME280;48550;40.588;49.684;2023-05-20T00:36:01;101517.44;;;15.36;100.00
60371;BME280;48550;40.588;49.684;2023-05-20T00:38:26;101507.94;;;15.34;100.00
60371;BME280;48550;40.588;49.684;2023-05-20T00:40:52;101520.66;;;15.33;100.00
60371;BME280;48550;40.588;49.684;2023-05-20T00:43:18;101512.53;;;15.33;100.00
60371;BME280;48550;40.588;49.684;2023-05-20T00:45:45;101517.69;;;15.35;100.00
60371;BME280;48550;40.588;49.684;2023-05-20T00:48:12;101511.47;;;15.34;100.00
60371;BME280;48550;40.588;49.684;2023-05-20T00:50:38;101505.25;;;15.34;100.00
60371;BME280;48550;40.588;49.684;2023-05-20T00:53:05;101507.69;;;15.35;100.00
60371;BME280;48550;40.588;49.684;2023-05-20T00:55:31;101501.22;;;15.36;100.00
60371;BME280;48550;40.588;49.684;2023-05-20T00:57:57;101507.69;;;15.35;100.00
60371;BME280;48550;40.588;49.684;2023-05-20T01:00:23;101497.94;;;15.34;100.00
60371;BME280;48550;40.588;49.684;2023-05-20T01:02:49;101499.00;;;15.33;100.00
60371;BME280;48550;40.588;49.684;2023-05-20T01:05:15;101503.59;;;15.33;100.00
60371;BME280;48550;40.588;49.684;2023-05-20T01:07:41;101502.78;;;15.32;100.00
60371;BME280;48550;40.588;49.684;2023-05-20T01:10:07;101498.44;;;15.31;100.00
60371;BME280;48550;40.588;49.684;2023-05-20T01:12:48;101499.25;;;15.32;100.00
60371;BME280;48550;40.588;49.684;2023-05-20T01:15:16;101501.38;;;15.30;100.00
60371;BME280;48550;40.588;49.684;2023-05-20T01:17:45;101507.03;;;15.28;100.00
60371;BME280;48550;40.588;49.684;2023-05-20T01:20:13;101520.81;;;15.26;100.00
60371;BME280;48550;40.588;49.684;2023-05-20T01:22:55;101523.25;;;15.28;100.00
60371;BME280;48550;40.588;49.684;2023-05-20T01:25:22;101515.63;;;15.25;100.00
60371;BME280;48550;40.588;49.684;2023-05-20T01:27:49;101526.69;;;15.23;100.00
60371;BME280;48550;40.588;49.684;2023-05-20T01:30:17;101525.88;;;15.23;100.00
60371;BME280;48550;40.588;49.684;2023-05-20T01:32:47;101530.22;;;15.24;100.00
60371;BME280;48550;40.588;49.684;2023-05-20T01:35:15;101524.00;;;15.23;100.00
60371;BME280;48550;40.588;49.684;2023-05-20T01:37:41;101527.75;;;15.22;100.00
60371;BME280;48550;40.588;49.684;2023-05-20T01:40:10;101530.72;;;15.21;100.00
60371;BME280;48550;40.588;49.684;2023-05-20T01:42:38;101524.25;;;15.22;100.00
60371;BME280;48550;40.588;49.684;2023-05-20T01:45:04;101544.31;;;15.26;100.00
60371;BME280;48550;40.588;49.684;2023-05-20T01:47:30;101554.41;;;15.31;100.00
60371;BME280;48550;40.588;49.684;2023-05-20T01:49:56;101557.22;;;15.36;100.00
60371;BME280;48550;40.588;49.684;2023-05-20T01:52:22;101543.53;;;15.42;100.00
60371;BME280;48550;40.588;49.684;2023-05-20T01:54:48;101543.13;;;15.50;100.00
60371;BME280;48550;40.588;49.684;2023-05-20T01:57:22;101544.28;;;15.54;100.00
60371;BME280;48550;40.588;49.684;2023-05-20T01:59:47;101541.09;;;15.57;100.00
60371;BME280;48550;40.588;49.684;2023-05-20T02:02:14;101538.75;;;15.61;100.00
60371;BME280;48550;40.588;49.684;2023-05-20T02:04:43;101542.59;;;15.65;100.00
60371;BME280;48550;40.588;49.684;2023-05-20T02:07:13;101549.56;;;15.78;100.00
60371;BME280;48550;40.588;49.684;2023-05-20T02:09:39;101542.19;;;15.90;100.00
60371;BME280;48550;40.588;49.684;2023-05-20T02:12:06;101538.81;;;16.00;100.00
60371;BME280;48550;40.588;49.684;2023-05-20T02:14:32;101536.75;;;16.07;100.00
60371;BME280;48550;40.588;49.684;2023-05-20T02:16:57;101548.53;;;16.17;100.00
60371;BME280;48550;40.588;49.684;2023-05-20T02:19:23;101550.50;;;16.22;100.00
60371;BME280;48550;40.588;49.684;2023-05-20T02:21:49;101556.88;;;16.33;100.00
60371;BME280;48550;40.588;49.684;2023-05-20T02:24:15;101570.66;;;16.48;100.00
60371;BME280;48550;40.588;49.684;2023-05-20T02:26:41;101592.28;;;16.65;100.00
60371;BME280;48550;40.588;49.684;2023-05-20T02:29:08;101581.59;;;16.75;100.00
60371;BME280;48550;40.588;49.684;2023-05-20T02:31:34;101600.84;;;17.00;100.00
60371;BME280;48550;40.588;49.684;2023-05-20T02:34:00;101607.72;;;17.08;100.00
60371;BME280;48550;40.588;49.684;2023-05-20T02:36:26;101608.06;;;17.11;100.00
60371;BME280;48550;40.588;49.684;2023-05-20T02:38:52;101602.94;;;17.15;100.00
60371;BME280;48550;40.588;49.684;2023-05-20T02:41:21;101603.81;;;17.21;100.00
60371;BME280;48550;40.588;49.684;2023-05-20T02:43:47;101609.19;;;17.42;100.00
60371;BME280;48550;40.588;49.684;2023-05-20T02:46:13;101590.50;;;17.73;100.00
60371;BME280;48550;40.588;49.684;2023-05-20T02:48:40;101596.13;;;17.93;100.00
60371;BME280;48550;40.588;49.684;2023-05-20T02:51:05;101590.50;;;17.73;100.00
60371;BME280;48550;40.588;49.684;2023-05-20T02:53:31;101592.03;;;17.64;100.00
60371;BME280;48550;40.588;49.684;2023-05-20T02:55:57;101600.13;;;17.59;100.00
60371;BME280;48550;40.588;49.684;2023-05-20T02:58:24;101615.03;;;17.83;100.00
60371;BME280;48550;40.588;49.684;2023-05-20T03:00:53;101616.84;;;17.72;100.00
60371;BME280;48550;40.588;49.684;2023-05-20T03:03:18;101611.50;;;17.83;100.00
60371;BME280;48550;40.588;49.684;2023-05-20T03:05:45;101621.13;;;17.95;100.00
60371;BME280;48550;40.588;49.684;2023-05-20T03:08:11;101629.00;;;18.34;100.00
60371;BME280;48550;40.588;49.684;2023-05-20T03:10:37;101632.00;;;18.37;100.00
60371;BME280;48550;40.588;49.684;2023-05-20T03:13:04;101647.31;;;17.79;100.00
60371;BME280;48550;40.588;49.684;2023-05-20T03:15:33;101647.78;;;17.71;100.00
60371;BME280;48550;40.588;49.684;2023-05-20T03:18:00;101656.19;;;17.97;100.00
60371;BME280;48550;40.588;49.684;2023-05-20T03:20:26;101657.88;;;18.45;100.00
60371;BME280;48550;40.588;49.684;2023-05-20T03:22:53;101665.47;;;18.75;100.00
60371;BME280;48550;40.588;49.684;2023-05-20T03:25:21;101675.03;;;18.88;100.00
60371;BME280;48550;40.588;49.684;2023-05-20T03:27:46;101681.00;;;19.47;100.00
60371;BME280;48550;40.588;49.684;2023-05-20T03:30:13;101685.41;;;19.58;100.00
60371;BME280;48550;40.588;49.684;2023-05-20T03:32:38;101682.63;;;19.43;100.00
60371;BME280;48550;40.588;49.684;2023-05-20T03:35:05;101691.31;;;19.40;100.00
60371;BME280;48550;40.588;49.684;2023-05-20T03:37:31;101690.94;;;19.16;100.00
60371;BME280;48550;40.588;49.684;2023-05-20T03:39:56;101680.91;;;19.27;100.00
60371;BME280;48550;40.588;49.684;2023-05-20T03:42:22;101678.94;;;19.07;100.00
60371;BME280;48550;40.588;49.684;2023-05-20T03:44:48;101686.69;;;19.35;100.00
60371;BME280;48550;40.588;49.684;2023-05-20T03:47:13;101696.59;;;19.82;100.00
60371;BME280;48550;40.588;49.684;2023-05-20T03:49:39;101700.16;;;19.88;100.00
60371;BME280;48550;40.588;49.684;2023-05-20T03:52:06;101697.75;;;20.22;100.00
60371;BME280;48550;40.588;49.684;2023-05-20T03:54:32;101699.13;;;21.40;100.00
60371;BME280;48550;40.588;49.684;2023-05-20T03:56:59;101680.78;;;20.66;100.00
60371;BME280;48550;40.588;49.684;2023-05-20T03:59:26;101691.03;;;21.14;100.00
60371;BME280;48550;40.588;49.684;2023-05-20T04:01:52;101698.31;;;21.39;100.00
60371;BME280;48550;40.588;49.684;2023-05-20T04:04:17;101691.09;;;20.94;100.00
60371;BME280;48550;40.588;49.684;2023-05-20T04:06:43;101690.63;;;21.41;100.00
60371;BME280;48550;40.588;49.684;2023-05-20T04:09:10;101699.34;;;20.69;100.00
60371;BME280;48550;40.588;49.684;2023-05-20T04:11:35;101688.56;;;21.13;100.00
60371;BME280;48550;40.588;49.684;2023-05-20T04:14:01;101697.16;;;19.79;100.00
60371;BME280;48550;40.588;49.684;2023-05-20T04:16:27;101695.25;;;19.85;100.00
60371;BME280;48550;40.588;49.684;2023-05-20T04:18:54;101700.72;;;20.05;100.00
60371;BME280;48550;40.588;49.684;2023-05-20T04:21:20;101714.78;;;21.14;100.00
60371;BME280;48550;40.588;49.684;2023-05-20T04:23:46;101701.75;;;20.80;100.00
60371;BME280;48550;40.588;49.684;2023-05-20T04:26:12;101707.78;;;21.57;100.00
60371;BME280;48550;40.588;49.684;2023-05-20T04:28:37;101705.34;;;21.50;100.00
60371;BME280;48550;40.588;49.684;2023-05-20T04:31:06;101705.47;;;21.20;100.00
60371;BME280;48550;40.588;49.684;2023-05-20T04:33:32;101702.28;;;22.01;100.00
60371;BME280;48550;40.588;49.684;2023-05-20T04:36:02;101711.00;;;22.08;100.00
60371;BME280;48550;40.588;49.684;2023-05-20T04:38:30;101708.31;;;22.37;100.00
60371;BME280;48550;40.588;49.684;2023-05-20T04:40:57;101709.06;;;21.70;100.00
60371;BME280;48550;40.588;49.684;2023-05-20T04:43:26;101711.03;;;22.66;100.00
60371;BME280;48550;40.588;49.684;2023-05-20T04:45:55;101713.03;;;20.43;100.00
60371;BME280;48550;40.588;49.684;2023-05-20T04:48:21;101716.38;;;21.30;100.00
60371;BME280;48550;40.588;49.684;2023-05-20T04:50:47;101716.91;;;21.32;100.00
60371;BME280;48550;40.588;49.684;2023-05-20T04:53:17;101713.25;;;21.57;100.00
60371;BME280;48550;40.588;49.684;2023-05-20T04:55:45;101718.78;;;22.25;100.00
60371;BME280;48550;40.588;49.684;2023-05-20T04:58:10;101718.31;;;22.52;100.00
60371;BME280;48550;40.588;49.684;2023-05-20T05:00:40;101716.81;;;21.58;100.00
60371;BME280;48550;40.588;49.684;2023-05-20T05:03:07;101715.09;;;20.97;100.00
60371;BME280;48550;40.588;49.684;2023-05-20T05:05:35;101711.66;;;20.41;100.00
60371;BME280;48550;40.588;49.684;2023-05-20T05:08:05;101703.59;;;21.70;100.00
60371;BME280;48550;40.588;49.684;2023-05-20T05:10:32;101706.75;;;20.48;100.00
60371;BME280;48550;40.588;49.684;2023-05-20T05:12:58;101714.28;;;21.02;100.00
60371;BME280;48550;40.588;49.684;2023-05-20T05:15:24;101720.31;;;22.07;100.00
60371;BME280;48550;40.588;49.684;2023-05-20T05:17:49;101714.41;;;22.58;100.00
60371;BME280;48550;40.588;49.684;2023-05-20T05:20:16;101712.44;;;21.96;100.00
60371;BME280;48550;40.588;49.684;2023-05-20T05:22:42;101711.88;;;21.99;100.00
60371;BME280;48550;40.588;49.684;2023-05-20T05:25:09;101699.59;;;22.35;100.00
60371;BME280;48550;40.588;49.684;2023-05-20T05:27:35;101700.44;;;22.31;100.00
60371;BME280;48550;40.588;49.684;2023-05-20T05:30:02;101692.94;;;22.12;100.00
60371;BME280;48550;40.588;49.684;2023-05-20T05:32:27;101708.06;;;22.63;100.00
60371;BME280;48550;40.588;49.684;2023-05-20T05:34:53;101711.78;;;21.10;100.00
60371;BME280;48550;40.588;49.684;2023-05-20T05:37:19;101702.44;;;23.07;100.00
60371;BME280;48550;40.588;49.684;2023-05-20T05:39:45;101707.38;;;23.05;100.00
60371;BME280;48550;40.588;49.684;2023-05-20T05:42:11;101697.47;;;23.89;100.00
60371;BME280;48550;40.588;49.684;2023-05-20T05:44:37;101701.88;;;23.29;100.00
60371;BME280;48550;40.588;49.684;2023-05-20T05:47:03;101705.97;;;24.06;100.00
60371;BME280;48550;40.588;49.684;2023-05-20T05:49:30;101705.03;;;23.97;100.00
60371;BME280;48550;40.588;49.684;2023-05-20T05:51:56;101700.06;;;23.99;98.07
60371;BME280;48550;40.588;49.684;2023-05-20T05:54:21;101699.16;;;23.48;100.00
60371;BME280;48550;40.588;49.684;2023-05-20T05:56:47;101698.69;;;22.69;100.00
60371;BME280;48550;40.588;49.684;2023-05-20T05:59:14;101702.38;;;23.12;100.00
60371;BME280;48550;40.588;49.684;2023-05-20T06:01:40;101716.03;;;24.30;82.54
60371;BME280;48550;40.588;49.684;2023-05-20T06:04:06;101704.00;;;23.74;91.35
60371;BME280;48550;40.588;49.684;2023-05-20T06:06:32;101698.13;;;24.00;96.70
60371;BME280;48550;40.588;49.684;2023-05-20T06:08:58;101707.47;;;23.99;85.18
60371;BME280;48550;40.588;49.684;2023-05-20T06:11:24;101701.81;;;23.34;96.40
60371;BME280;48550;40.588;49.684;2023-05-20T06:13:51;101700.75;;;23.30;96.90
60371;BME280;48550;40.588;49.684;2023-05-20T06:16:17;101699.25;;;23.19;100.00
60371;BME280;48550;40.588;49.684;2023-05-20T06:18:44;101698.78;;;22.35;100.00
60371;BME280;48550;40.588;49.684;2023-05-20T06:21:10;101689.94;;;23.20;97.54
60371;BME280;48550;40.588;49.684;2023-05-20T06:23:36;101696.19;;;23.44;87.85
60371;BME280;48550;40.588;49.684;2023-05-20T06:26:02;101688.25;;;23.00;99.58
60371;BME280;48550;40.588;49.684;2023-05-20T06:28:28;101695.03;;;22.78;99.05
60371;BME280;48550;40.588;49.684;2023-05-20T06:30:54;101705.97;;;24.06;86.39
60371;BME280;48550;40.588;49.684;2023-05-20T06:33:22;101705.19;;;23.26;92.61
60371;BME280;48550;40.588;49.684;2023-05-20T06:35:52;101704.75;;;22.03;100.00
60371;BME280;48550;40.588;49.684;2023-05-20T06:38:18;101701.84;;;23.71;94.65
60371;BME280;48550;40.588;49.684;2023-05-20T06:40:44;101699.63;;;23.73;84.19
60371;BME280;48550;40.588;49.684;2023-05-20T06:43:10;101693.09;;;23.69;84.80
60371;BME280;48550;40.588;49.684;2023-05-20T06:45:36;101686.19;;;23.53;93.62
60371;BME280;48550;40.588;49.684;2023-05-20T06:48:01;101689.59;;;23.02;100.00
60371;BME280;48550;40.588;49.684;2023-05-20T06:50:27;101689.88;;;23.25;100.00
60371;BME280;48550;40.588;49.684;2023-05-20T06:52:53;101690.44;;;22.16;100.00
60371;BME280;48550;40.588;49.684;2023-05-20T06:55:19;101697.28;;;23.00;91.84
60371;BME280;48550;40.588;49.684;2023-05-20T06:57:45;101699.00;;;24.14;84.75
60371;BME280;48550;40.588;49.684;2023-05-20T07:00:11;101690.03;;;24.08;82.17
60371;BME280;48550;40.588;49.684;2023-05-20T07:02:38;101697.28;;;24.18;81.39
60371;BME280;48550;40.588;49.684;2023-05-20T07:05:05;101693.25;;;23.97;77.25
60371;BME280;48550;40.588;49.684;2023-05-20T07:07:31;101697.44;;;24.73;71.46
60371;BME280;48550;40.588;49.684;2023-05-20T07:09:57;101693.41;;;23.87;76.54
60371;BME280;48550;40.588;49.684;2023-05-20T07:12:23;101689.66;;;24.48;71.00
60371;BME280;48550;40.588;49.684;2023-05-20T07:14:49;101692.28;;;24.39;70.50
60371;BME280;48550;40.588;49.684;2023-05-20T07:17:14;101682.44;;;24.19;72.40
60371;BME280;48550;40.588;49.684;2023-05-20T07:19:40;101679.75;;;23.44;80.90
60371;BME280;48550;40.588;49.684;2023-05-20T07:22:06;101665.66;;;23.13;83.85
60371;BME280;48550;40.588;49.684;2023-05-20T07:24:32;101673.00;;;23.18;86.87
60371;BME280;48550;40.588;49.684;2023-05-20T07:26:58;101674.34;;;23.76;78.41
60371;BME280;48550;40.588;49.684;2023-05-20T07:29:24;101687.38;;;23.47;83.36
60371;BME280;48550;40.588;49.684;2023-05-20T07:31:49;101683.16;;;23.36;88.13
60371;BME280;48550;40.588;49.684;2023-05-20T07:34:15;101679.97;;;23.29;86.16
60371;BME280;48550;40.588;49.684;2023-05-20T07:36:41;101684.22;;;23.59;78.37
60371;BME280;48550;40.588;49.684;2023-05-20T07:39:08;101689.47;;;23.74;81.90
60371;BME280;48550;40.588;49.684;2023-05-20T07:41:36;101686.22;;;23.91;72.79
60371;BME280;48550;40.588;49.684;2023-05-20T07:44:03;101686.16;;;23.16;77.89
60371;BME280;48550;40.588;49.684;2023-05-20T07:46:29;101673.03;;;22.02;91.36
60371;BME280;48550;40.588;49.684;2023-05-20T07:48:55;101672.81;;;21.59;94.62
60371;BME280;48550;40.588;49.684;2023-05-20T07:51:21;101663.97;;;21.18;100.00
60371;BME280;48550;40.588;49.684;2023-05-20T07:53:46;101652.53;;;21.11;100.00
60371;BME280;48550;40.588;49.684;2023-05-20T07:56:12;101655.56;;;21.09;100.00
60371;BME280;48550;40.588;49.684;2023-05-20T07:58:41;101653.63;;;21.15;100.00
60371;BME280;48550;40.588;49.684;2023-05-20T08:01:07;101642.66;;;20.45;100.00
60371;BME280;48550;40.588;49.684;2023-05-20T08:03:34;101648.94;;;19.95;100.00
60371;BME280;48550;40.588;49.684;2023-05-20T08:06:01;101645.38;;;19.64;100.00
60371;BME280;48550;40.588;49.684;2023-05-20T08:08:27;101652.47;;;19.75;100.00
60371;BME280;48550;40.588;49.684;2023-05-20T08:10:55;101641.31;;;19.92;100.00
60371;BME280;48550;40.588;49.684;2023-05-20T08:13:20;101638.84;;;20.41;100.00
60371;BME280;48550;40.588;49.684;2023-05-20T08:15:46;101636.94;;;20.06;100.00
60371;BME280;48550;40.588;49.684;2023-05-20T08:18:14;101641.59;;;20.16;100.00
60371;BME280;48550;40.588;49.684;2023-05-20T08:20:40;101639.13;;;20.19;100.00
60371;BME280;48550;40.588;49.684;2023-05-20T08:23:07;101638.84;;;19.90;100.00
60371;BME280;48550;40.588;49.684;2023-05-20T08:25:32;101621.13;;;20.23;100.00
60371;BME280;48550;40.588;49.684;2023-05-20T08:28:01;101626.03;;;20.21;100.00
60371;BME280;48550;40.588;49.684;2023-05-20T08:30:28;101627.84;;;19.29;100.00
60371;BME280;48550;40.588;49.684;2023-05-20T08:32:55;101623.00;;;19.52;100.00
60371;BME280;48550;40.588;49.684;2023-05-20T08:35:22;101616.38;;;19.22;100.00
60371;BME280;48550;40.588;49.684;2023-05-20T08:37:48;101615.09;;;19.40;100.00
60371;BME280;48550;40.588;49.684;2023-05-20T08:40:14;101611.50;;;19.24;100.00
60371;BME280;48550;40.588;49.684;2023-05-20T08:42:43;101607.72;;;19.35;100.00
60371;BME280;48550;40.588;49.684;2023-05-20T08:45:12;101604.25;;;19.60;100.00
60371;BME280;48550;40.588;49.684;2023-05-20T08:47:41;101613.38;;;19.19;100.00
60371;BME280;48550;40.588;49.684;2023-05-20T08:50:08;101610.53;;;18.78;100.00
60371;BME280;48550;40.588;49.684;2023-05-20T08:52:37;101605.47;;;19.07;100.00
60371;BME280;48550;40.588;49.684;2023-05-20T08:55:06;101599.91;;;19.59;100.00
60371;BME280;48550;40.588;49.684;2023-05-20T08:57:34;101589.56;;;20.07;100.00
60371;BME280;48550;40.588;49.684;2023-05-20T09:00:01;101577.63;;;20.78;100.00
60371;BME280;48550;40.588;49.684;2023-05-20T09:02:36;101578.66;;;20.97;100.00
60371;BME280;48550;40.588;49.684;2023-05-20T09:05:03;101580.44;;;20.57;100.00
60371;BME280;48550;40.588;49.684;2023-05-20T09:07:29;101589.38;;;20.73;100.00
60371;BME280;48550;40.588;49.684;2023-05-20T09:09:56;101588.94;;;20.51;100.00
60371;BME280;48550;40.588;49.684;2023-05-20T09:12:22;101604.50;;;20.30;100.00
60371;BME280;48550;40.588;49.684;2023-05-20T09:14:48;101600.97;;;20.14;100.00
60371;BME280;48550;40.588;49.684;2023-05-20T09:17:13;101599.34;;;19.83;100.00
60371;BME280;48550;40.588;49.684;2023-05-20T09:19:39;101593.06;;;20.03;100.00
60371;BME280;48550;40.588;49.684;2023-05-20T09:22:05;101594.19;;;20.12;100.00
60371;BME280;48550;40.588;49.684;2023-05-20T09:24:31;101582.44;;;20.01;100.00
60371;BME280;48550;40.588;49.684;2023-05-20T09:26:57;101601.81;;;19.74;100.00
60371;BME280;48550;40.588;49.684;2023-05-20T09:29:24;101585.97;;;19.35;100.00
60371;BME280;48550;40.588;49.684;2023-05-20T09:31:50;101582.94;;;19.32;100.00
60371;BME280;48550;40.588;49.684;2023-05-20T09:34:19;101572.28;;;19.10;100.00
60371;BME280;48550;40.588;49.684;2023-05-20T09:36:49;101576.69;;;19.36;100.00
60371;BME280;48550;40.588;49.684;2023-05-20T09:39:24;101569.84;;;19.29;100.00
60371;BME280;48550;40.588;49.684;2023-05-20T09:44:18;101573.94;;;19.31;100.00
60371;BME280;48550;40.588;49.684;2023-05-20T09:46:44;101588.09;;;19.28;100.00
60371;BME280;48550;40.588;49.684;2023-05-20T09:49:12;101584.19;;;18.94;100.00
60371;BME280;48550;40.588;49.684;2023-05-20T09:51:40;101595.81;;;18.69;100.00
60371;BME280;48550;40.588;49.684;2023-05-20T09:54:08;101609.38;;;18.64;100.00
60371;BME280;48550;40.588;49.684;2023-05-20T09:56:35;101603.53;;;18.97;100.00
60371;BME280;48550;40.588;49.684;2023-05-20T09:59:01;101600.81;;;18.97;100.00
60371;BME280;48550;40.588;49.684;2023-05-20T10:01:29;101598.81;;;18.72;100.00
60371;BME280;48550;40.588;49.684;2023-05-20T10:03:55;101605.28;;;18.61;100.00
60371;BME280;48550;40.588;49.684;2023-05-20T10:15:27;101612.50;;;18.93;100.00
60371;BME280;48550;40.588;49.684;2023-05-20T10:20:46;101620.84;;;18.71;100.00
60371;BME280;48550;40.588;49.684;2023-05-20T10:23:28;101614.66;;;18.43;100.00
60371;BME280;48550;40.588;49.684;2023-05-20T10:25:55;101609.38;;;17.85;100.00
60371;BME280;48550;40.588;49.684;2023-05-20T10:28:32;101612.19;;;17.68;100.00
60371;BME280;48550;40.588;49.684;2023-05-20T10:31:00;101614.84;;;17.90;100.00
60371;BME280;48550;40.588;49.684;2023-05-20T10:33:26;101614.31;;;17.66;100.00
60371;BME280;48550;40.588;49.684;2023-05-20T10:35:53;101602.03;;;17.31;100.00
60371;BME280;48550;40.588;49.684;2023-05-20T10:38:19;101593.38;;;17.34;100.00
60371;BME280;48550;40.588;49.684;2023-05-20T10:40:46;101588.94;;;17.23;100.00
60371;BME280;48550;40.588;49.684;2023-05-20T10:43:14;101583.25;;;17.25;100.00
60371;BME280;48550;40.588;49.684;2023-05-20T10:45:47;101574.69;;;17.38;100.00
60371;BME280;48550;40.588;49.684;2023-05-20T10:48:31;101587.03;;;17.51;100.00
60371;BME280;48550;40.588;49.684;2023-05-20T10:50:58;101581.69;;;17.88;100.00
60371;BME280;48550;40.588;49.684;2023-05-20T10:53:26;101581.75;;;17.98;100.00
60371;BME280;48550;40.588;49.684;2023-05-20T10:55:53;101590.66;;;17.61;100.00
60371;BME280;48550;40.588;49.684;2023-05-20T10:58:23;101581.59;;;17.51;100.00
60371;BME280;48550;40.588;49.684;2023-05-20T11:00:52;101574.50;;;17.18;100.00
60371;BME280;48550;40.588;49.684;2023-05-20T11:03:21;101567.19;;;16.96;100.00
60371;BME280;48550;40.588;49.684;2023-05-20T11:05:47;101573.44;;;16.97;100.00
60371;BME280;48550;40.588;49.684;2023-05-20T11:08:13;101574.59;;;17.28;100.00
60371;BME280;48550;40.588;49.684;2023-05-20T11:10:40;101568.63;;;17.58;100.00
60371;BME280;48550;40.588;49.684;2023-05-20T11:13:07;101574.16;;;17.68;100.00
60371;BME280;48550;40.588;49.684;2023-05-20T11:15:34;101575.88;;;17.79;100.00
60371;BME280;48550;40.588;49.684;2023-05-20T11:18:02;101573.25;;;17.84;100.00
60371;BME280;48550;40.588;49.684;2023-05-20T11:20:29;101588.53;;;17.95;100.00
60371;BME280;48550;40.588;49.684;2023-05-20T11:22:55;101579.88;;;17.98;100.00
60371;BME280;48550;40.588;49.684;2023-05-20T11:25:21;101564.88;;;17.91;100.00
60371;BME280;48550;40.588;49.684;2023-05-20T11:27:48;101564.50;;;17.82;100.00
60371;BME280;48550;40.588;49.684;2023-05-20T11:30:15;101566.16;;;17.83;100.00
60371;BME280;48550;40.588;49.684;2023-05-20T11:32:55;101574.53;;;18.14;100.00
60371;BME280;48550;40.588;49.684;2023-05-20T11:35:23;101565.84;;;18.17;100.00
60371;BME280;48550;40.588;49.684;2023-05-20T11:37:56;101558.78;;;18.16;100.00
60371;BME280;48550;40.588;49.684;2023-05-20T11:40:25;101554.44;;;18.15;100.00
60371;BME280;48550;40.588;49.684;2023-05-20T11:42:57;101551.50;;;18.26;100.00
60371;BME280;48550;40.588;49.684;2023-05-20T11:45:23;101552.31;;;18.27;100.00
60371;BME280;48550;40.588;49.684;2023-05-20T11:48:05;101552.56;;;18.20;100.00
60371;BME280;48550;40.588;49.684;2023-05-20T11:50:35;101559.66;;;18.26;100.00
60371;BME280;48550;40.588;49.684;2023-05-20T11:53:04;101560.97;;;18.19;100.00
60371;BME280;48550;40.588;49.684;2023-05-20T11:55:31;101551.69;;;17.72;100.00
60371;BME280;48550;40.588;49.684;2023-05-20T11:58:00;101550.44;;;17.85;100.00
60371;BME280;48550;40.588;49.684;2023-05-20T12:00:27;101552.00;;;18.18;100.00
60371;BME280;48550;40.588;49.684;2023-05-20T12:02:53;101551.88;;;17.98;100.00
60371;BME280;48550;40.588;49.684;2023-05-20T12:05:19;101552.44;;;18.00;100.00
60371;BME280;48550;40.588;49.684;2023-05-20T12:07:45;101544.38;;;17.78;100.00
60371;BME280;48550;40.588;49.684;2023-05-20T12:10:10;101546.53;;;17.76;100.00
60371;BME280;48550;40.588;49.684;2023-05-20T12:12:38;101554.13;;;17.74;100.00
60371;BME280;48550;40.588;49.684;2023-05-20T12:15:04;101542.31;;;17.58;100.00
60371;BME280;48550;40.588;49.684;2023-05-20T12:17:46;101546.25;;;16.92;100.00
60371;BME280;48550;40.588;49.684;2023-05-20T12:20:14;101544.72;;;17.01;100.00
60371;BME280;48550;40.588;49.684;2023-05-20T12:22:42;101542.91;;;17.33;100.00
60371;BME280;48550;40.588;49.684;2023-05-20T12:25:13;101542.13;;;17.38;100.00
60371;BME280;48550;40.588;49.684;2023-05-20T12:27:43;101555.22;;;17.46;100.00
60371;BME280;48550;40.588;49.684;2023-05-20T12:30:13;101540.25;;;17.38;100.00
60371;BME280;48550;40.588;49.684;2023-05-20T12:32:40;101545.44;;;17.45;100.00
60371;BME280;48550;40.588;49.684;2023-05-20T12:35:08;101547.84;;;17.41;100.00
60371;BME280;48550;40.588;49.684;2023-05-20T12:37:35;101549.41;;;17.32;100.00
60371;BME280;48550;40.588;49.684;2023-05-20T12:40:01;101552.00;;;17.49;100.00
60371;BME280;48550;40.588;49.684;2023-05-20T12:42:36;101556.47;;;17.33;100.00
60371;BME280;48550;40.588;49.684;2023-05-20T12:45:02;101554.31;;;17.35;100.00